Time;durP1;ratioP1;P1;durP2;ratioP2;P2;SDS_P1;SDS_P2;PMS_P1;PMS_P2;Temp;Humidity;BMP_temperature;BMP_pressure;BME280_temperature;BME280_humidity;BME280_pressure;Samples;Min_cycle;Max_cycle;Signal;HPM_P1;HPM_P2
2023/04/14 00:02:41;;;;;;;6.32;4.47;;;9.60;99.90;;;;;;4965193;28;20037;-52
2023/04/14 00:05:32;;;;;;;5.82;4.22;;;9.60;99.90;;;;;;4953165;28;20460;-54
2023/04/14 00:08:18;;;;;;;4.47;4.00;;;9.60;99.90;;;;;;4951776;29;20163;-49
2023/04/14 00:11:04;;;;;;;4.53;3.88;;;9.60;99.90;;;;;;4953528;28;20159;-52
2023/04/14 00:13:50;;;;;;;4.65;4.03;;;9.60;99.90;;;;;;4962195;28;20046;-51
2023/04/14 00:16:38;;;;;;;5.63;4.13;;;9.50;99.90;;;;;;4962942;28;20049;-52
2023/04/14 00:19:24;;;;;;;5.20;4.28;;;9.50;99.90;;;;;;4964750;28;20043;-49
2023/04/14 00:22:10;;;;;;;4.57;4.10;;;9.40;99.90;;;;;;4958638;28;20039;-51
2023/04/14 00:24:56;;;;;;;6.22;4.10;;;9.40;99.90;;;;;;4940574;29;20035;-50
2023/04/14 00:27:42;;;;;;;4.72;3.88;;;9.40;99.90;;;;;;4950495;28;20416;-53
2023/04/14 00:30:28;;;;;;;9.27;4.38;;;9.40;99.90;;;;;;4938396;29;20031;-49
2023/04/14 00:33:14;;;;;;;6.03;4.25;;;9.40;99.90;;;;;;4953413;28;20064;-48
2023/04/14 00:36:00;;;;;;;6.10;4.32;;;9.40;99.90;;;;;;4952672;29;20036;-49
2023/04/14 00:38:46;;;;;;;6.57;4.38;;;9.40;99.90;;;;;;4952196;29;20063;-50
2023/04/14 00:41:33;;;;;;;5.32;4.25;;;9.40;99.90;;;;;;4953506;28;20035;-51
2023/04/14 00:44:19;;;;;;;6.13;4.68;;;9.40;99.90;;;;;;4954225;28;20029;-54
2023/04/14 00:47:06;;;;;;;6.60;4.47;;;9.30;99.90;;;;;;4956228;28;20034;-53
2023/04/14 00:49:52;;;;;;;6.22;3.88;;;9.20;99.90;;;;;;4956618;28;20465;-51
2023/04/14 00:52:38;;;;;;;6.05;4.50;;;9.20;99.90;;;;;;4955815;28;20062;-50
2023/04/14 00:55:24;;;;;;;8.88;4.97;;;9.10;99.90;;;;;;4935764;29;20039;-50
2023/04/14 00:58:12;;;;;;;6.30;4.90;;;8.90;99.90;;;;;;4936955;29;20055;-51
2023/04/14 01:00:58;;;;;;;4.95;4.30;;;8.90;99.90;;;;;;4952440;28;20022;-52
2023/04/14 01:03:45;;;;;;;5.07;4.57;;;9.00;99.90;;;;;;4949536;28;20555;-51
2023/04/14 01:06:31;;;;;;;5.55;4.63;;;9.20;99.90;;;;;;4940950;28;20047;-49
2023/04/14 01:09:17;;;;;;;5.95;5.05;;;9.10;99.90;;;;;;4956327;28;20658;-50
2023/04/14 01:12:25;;;;;;;7.85;5.72;;;9.10;99.90;;;;;;4960817;28;20062;-50
2023/04/14 01:15:23;;;;;;;7.57;5.30;;;9.10;99.90;;;;;;4961324;28;20381;-49
2023/04/14 01:18:28;;;;;;;6.65;5.00;;;9.10;99.90;;;;;;4954293;29;20028;-50
2023/04/14 01:21:27;;;;;;;6.32;5.20;;;8.90;99.90;;;;;;4945378;28;20152;-54
2023/04/14 01:24:39;;;;;;;7.80;5.13;;;8.70;99.90;;;;;;4973754;28;20539;-55
2023/04/14 01:27:53;;;;;;;5.60;5.00;;;8.70;99.90;;;;;;4973551;28;20062;-50
2023/04/14 01:31:13;;;;;;;8.02;5.10;;;8.80;99.90;;;;;;4971209;28;20046;-55
2023/04/14 01:34:28;;;;;;;7.63;5.60;;;8.90;99.90;;;;;;4963057;28;20522;-51
2023/04/14 01:37:29;;;;;;;6.38;5.30;;;8.90;99.90;;;;;;4972831;28;20033;-53
2023/04/14 01:40:17;;;;;;;6.53;5.72;;;8.90;99.90;;;;;;4964980;28;20042;-56
2023/04/14 01:43:09;;;;;;;6.60;5.45;;;8.70;99.90;;;;;;4962236;28;20023;-55
2023/04/14 01:45:59;;;;;;;6.90;6.00;;;8.80;99.90;;;;;;4973755;28;20615;-53
2023/04/14 01:48:46;;;;;;;7.13;5.72;;;8.80;99.90;;;;;;4973494;28;20033;-54
2023/04/14 01:51:33;;;;;;;6.60;5.00;;;8.80;99.90;;;;;;4973829;28;20039;-50
2023/04/14 01:54:20;;;;;;;6.60;5.90;;;8.80;99.90;;;;;;4972554;28;20039;-52
2023/04/14 01:57:10;;;;;;;7.38;6.03;;;8.90;99.90;;;;;;4972889;28;20086;-51
2023/04/14 01:59:58;;;;;;;7.32;6.07;;;8.90;99.90;;;;;;4973682;28;20065;-51
2023/04/14 02:02:46;;;;;;;7.40;6.00;;;9.00;99.90;;;;;;4973710;28;20030;-52
2023/04/14 02:05:35;;;;;;;8.23;6.47;;;9.00;99.90;;;;;;4973115;28;20067;-51
2023/04/14 02:08:23;;;;;;;7.57;5.78;;;9.00;99.90;;;;;;4973178;28;20094;-55
2023/04/14 02:11:11;;;;;;;8.23;6.25;;;9.00;99.90;;;;;;4961783;28;20031;-53
2023/04/14 02:13:59;;;;;;;7.78;6.47;;;8.90;99.90;;;;;;4964215;28;20181;-55
2023/04/14 02:16:48;;;;;;;7.97;6.47;;;8.80;99.90;;;;;;4972926;28;20031;-51
2023/04/14 02:19:35;;;;;;;8.88;6.45;;;8.90;99.90;;;;;;4967643;28;20066;-52
2023/04/14 02:22:21;;;;;;;9.23;6.80;;;8.90;99.90;;;;;;4957056;28;20075;-54
2023/04/14 02:25:07;;;;;;;8.57;6.45;;;8.90;99.90;;;;;;4982052;28;20022;-53
2023/04/14 02:28:01;;;;;;;8.10;6.35;;;9.00;99.90;;;;;;4967698;28;20031;-54
2023/04/14 02:30:51;;;;;;;9.45;7.05;;;9.00;99.90;;;;;;4964125;28;20031;-55
2023/04/14 02:33:38;;;;;;;8.43;6.63;;;9.00;99.90;;;;;;4971760;28;20098;-48
2023/04/14 02:36:45;;;;;;;8.75;7.07;;;9.00;99.90;;;;;;4958686;28;20041;-53
2023/04/14 02:39:40;;;;;;;9.68;7.32;;;8.90;99.90;;;;;;4973099;28;20122;-53
2023/04/14 02:42:28;;;;;;;;;;;8.90;99.90;;;;;;4973359;28;20042;-53
2023/04/14 02:45:23;;;;;;;9.23;7.35;;;8.70;99.90;;;;;;4983933;28;19961;-52
2023/04/14 02:48:13;;;;;;;8.70;6.97;;;8.80;99.90;;;;;;4971085;28;20107;-53
2023/04/14 02:51:00;;;;;;;10.88;7.13;;;8.80;99.90;;;;;;4972665;28;20026;-52
2023/04/14 02:53:47;;;;;;;8.63;7.53;;;8.90;99.90;;;;;;4972292;28;20110;-52
2023/04/14 02:56:34;;;;;;;11.85;7.78;;;8.90;99.90;;;;;;4972492;28;20085;-53
2023/04/14 02:59:21;;;;;;;11.13;8.35;;;8.70;99.90;;;;;;4971758;28;20057;-49
2023/04/14 03:02:09;;;;;;;10.30;7.55;;;8.50;99.90;;;;;;4971626;28;20023;-52
2023/04/14 03:04:55;;;;;;;8.52;7.65;;;8.60;99.90;;;;;;4972781;28;20035;-52
2023/04/14 03:07:42;;;;;;;13.32;8.02;;;8.70;99.90;;;;;;4971115;28;20038;-49
2023/04/14 03:10:29;;;;;;;10.20;8.02;;;8.60;99.90;;;;;;4969955;28;20022;-49
2023/04/14 03:13:17;;;;;;;8.93;7.95;;;8.60;99.90;;;;;;4951274;28;20031;-54
2023/04/14 03:16:04;;;;;;;9.73;8.05;;;8.70;99.90;;;;;;4966651;28;20030;-55
2023/04/14 03:18:53;;;;;;;9.23;7.47;;;8.60;99.90;;;;;;4976833;28;20035;-52
2023/04/14 03:21:39;;;;;;;10.63;8.35;;;8.60;99.90;;;;;;4971767;28;20403;-49
2023/04/14 03:24:29;;;;;;;10.13;7.82;;;8.60;99.90;;;;;;4973601;28;20031;-49
2023/04/14 03:27:26;;;;;;;10.23;7.70;;;8.60;99.90;;;;;;4958936;28;20602;-50
2023/04/14 03:30:15;;;;;;;9.82;8.05;;;8.60;99.90;;;;;;4965350;28;20669;-50
2023/04/14 03:33:07;;;;;;;10.30;8.55;;;8.60;99.90;;;;;;4971616;28;20037;-50
2023/04/14 03:35:56;;;;;;;11.60;8.40;;;8.50;99.90;;;;;;4971605;28;20035;-51
2023/04/14 03:38:44;;;;;;;10.65;8.93;;;8.60;99.90;;;;;;4971673;28;20058;-54
2023/04/14 03:41:36;;;;;;;14.23;8.23;;;8.60;99.90;;;;;;4952933;28;20063;-53
2023/04/14 03:44:26;;;;;;;12.98;9.23;;;8.60;99.90;;;;;;4965075;28;20039;-54
2023/04/14 03:47:13;;;;;;;10.48;8.80;;;8.60;99.90;;;;;;4980873;28;20029;-51
2023/04/14 03:50:01;;;;;;;9.73;8.32;;;8.60;99.90;;;;;;4971732;28;20483;-52
2023/04/14 03:52:49;;;;;;;9.40;8.27;;;8.50;99.90;;;;;;4969940;28;20033;-53
2023/04/14 03:55:36;;;;;;;11.02;8.93;;;8.60;99.90;;;;;;4957509;28;20499;-54
2023/04/14 03:58:25;;;;;;;13.50;9.07;;;8.40;99.90;;;;;;4970590;28;20486;-52
2023/04/14 04:01:13;;;;;;;12.40;9.18;;;8.50;99.90;;;;;;4970829;28;20019;-52
2023/04/14 04:04:01;;;;;;;11.88;8.90;;;8.50;99.90;;;;;;4971876;28;20503;-51
2023/04/14 04:06:48;;;;;;;9.30;8.13;;;8.50;99.90;;;;;;4970738;28;20504;-50
2023/04/14 04:09:36;;;;;;;9.20;8.13;;;8.50;99.90;;;;;;4972050;28;20135;-53
2023/04/14 04:12:24;;;;;;;10.70;8.27;;;8.60;99.90;;;;;;4971106;28;20500;-52
2023/04/14 04:15:10;;;;;;;8.93;8.00;;;8.60;99.90;;;;;;4973051;28;20587;-50
2023/04/14 04:17:58;;;;;;;12.18;8.20;;;8.70;99.90;;;;;;4971156;28;20031;-52
2023/04/14 04:20:45;;;;;;;10.48;8.27;;;8.70;99.90;;;;;;4971400;28;20045;-54
2023/04/14 04:23:33;;;;;;;14.40;8.60;;;8.60;99.90;;;;;;4953868;28;20504;-53
2023/04/14 04:26:19;;;;;;;14.70;8.63;;;8.70;99.90;;;;;;4953541;28;20101;-56
2023/04/14 04:29:05;;;;;;;12.15;8.25;;;8.60;99.90;;;;;;4971059;28;20129;-53
2023/04/14 04:31:51;;;;;;;17.08;12.65;;;8.60;99.90;;;;;;4964195;28;20027;-52
2023/04/14 04:34:38;;;;;;;11.55;9.65;;;8.60;99.90;;;;;;4940658;28;20534;-53
2023/04/14 04:37:27;;;;;;;10.98;7.95;;;8.60;99.90;;;;;;4971080;28;20391;-55
2023/04/14 04:40:13;;;;;;;11.00;8.60;;;8.60;99.90;;;;;;4970718;28;20027;-53
2023/04/14 04:42:59;;;;;;;10.85;8.57;;;8.70;99.90;;;;;;4971216;28;20065;-56
2023/04/14 04:45:57;;;;;;;10.05;8.00;;;8.60;99.90;;;;;;4949378;28;20031;-51
2023/04/14 04:48:43;;;;;;;10.35;8.18;;;8.70;99.90;;;;;;4967974;28;20649;-54
2023/04/14 04:51:30;;;;;;;9.70;8.70;;;8.70;99.90;;;;;;4971339;28;20062;-52
2023/04/14 04:54:16;;;;;;;13.63;8.70;;;8.70;99.90;;;;;;4971010;28;20038;-53
2023/04/14 04:57:02;;;;;;;11.35;8.32;;;8.70;99.90;;;;;;4970608;28;20038;-53
2023/04/14 04:59:48;;;;;;;14.48;8.35;;;8.70;99.90;;;;;;4968841;28;20121;-53
2023/04/14 05:02:34;;;;;;;9.70;8.10;;;8.70;99.90;;;;;;4971632;28;20050;-54
2023/04/14 05:05:20;;;;;;;9.20;8.10;;;8.70;99.90;;;;;;4965663;28;20039;-54
2023/04/14 05:08:07;;;;;;;9.73;8.32;;;8.70;99.90;;;;;;4970824;28;20124;-52
2023/04/14 05:10:53;;;;;;;11.25;8.45;;;8.70;99.90;;;;;;4970866;28;20101;-53
2023/04/14 05:13:39;;;;;;;9.93;8.85;;;8.80;99.90;;;;;;4971455;28;20030;-55
2023/04/14 05:16:25;;;;;;;10.40;9.00;;;8.80;99.90;;;;;;4971408;28;20041;-56
2023/04/14 05:19:11;;;;;;;11.82;8.55;;;8.70;99.90;;;;;;4976722;28;20026;-52
2023/04/14 05:21:56;;;;;;;11.23;9.00;;;8.70;99.90;;;;;;4951903;28;20062;-53
2023/04/14 05:24:50;;;;;;;16.55;11.02;;;8.70;99.90;;;;;;4965961;28;20028;-50
2023/04/14 05:27:36;;;;;;;11.57;9.00;;;8.70;99.90;;;;;;4965277;28;20035;-50
2023/04/14 05:30:22;;;;;;;20.08;11.63;;;8.70;99.90;;;;;;4958237;28;20031;-50
2023/04/14 05:33:09;;;;;;;14.60;9.05;;;8.70;99.90;;;;;;4974078;28;20484;-51
2023/04/14 05:35:55;;;;;;;11.73;9.13;;;8.70;99.90;;;;;;4973113;28;20041;-52
2023/04/14 05:38:41;;;;;;;12.95;9.15;;;8.70;99.90;;;;;;4975934;28;20078;-54
2023/04/14 05:41:27;;;;;;;12.02;8.57;;;8.80;99.90;;;;;;4966356;28;20440;-54
2023/04/14 05:44:13;;;;;;;10.73;8.38;;;8.80;99.90;;;;;;4963135;28;20058;-55
2023/04/14 05:46:59;;;;;;;11.20;8.00;;;8.70;99.90;;;;;;4975763;28;20110;-53
2023/04/14 05:49:45;;;;;;;12.90;8.48;;;8.80;99.90;;;;;;4973909;28;20399;-53
2023/04/14 05:52:31;;;;;;;13.55;8.95;;;8.80;99.90;;;;;;4974287;28;20467;-55
2023/04/14 05:55:18;;;;;;;14.23;9.00;;;8.80;99.90;;;;;;4973897;28;20035;-54
2023/04/14 05:58:04;;;;;;;12.10;8.73;;;8.80;99.90;;;;;;4973091;28;20085;-53
2023/04/14 06:00:50;;;;;;;11.73;9.57;;;8.80;99.90;;;;;;4975975;28;20054;-55
2023/04/14 06:03:36;;;;;;;13.52;9.10;;;8.70;99.90;;;;;;4973843;28;20543;-54
2023/04/14 06:06:22;;;;;;;12.68;9.23;;;8.70;99.90;;;;;;4974295;28;20554;-52
2023/04/14 06:09:08;;;;;;;12.20;9.02;;;8.70;99.90;;;;;;4974783;28;20022;-54
2023/04/14 06:11:54;;;;;;;13.98;9.07;;;8.70;99.90;;;;;;4969361;28;20027;-55
2023/04/14 06:14:40;;;;;;;11.75;8.98;;;8.60;99.90;;;;;;4973639;28;20511;-50
2023/04/14 06:17:27;;;;;;;13.43;9.68;;;8.50;99.90;;;;;;4958863;28;20031;-53
2023/04/14 06:20:13;;;;;;;12.85;8.68;;;8.60;99.90;;;;;;4976251;28;20038;-50
2023/04/14 06:22:59;;;;;;;11.25;8.98;;;8.60;99.90;;;;;;4980640;28;20554;-52
2023/04/14 06:25:46;;;;;;;12.10;8.38;;;8.70;99.90;;;;;;4943137;29;20035;-55
2023/04/14 06:28:32;;;;;;;10.52;8.70;;;8.80;99.90;;;;;;4953163;28;20106;-51
2023/04/14 06:31:18;;;;;;;10.90;8.15;;;8.80;99.90;;;;;;4965307;28;20362;-49
2023/04/14 06:34:04;;;;;;;12.55;8.45;;;8.80;99.90;;;;;;4974191;28;20412;-54
2023/04/14 06:36:50;;;;;;;10.80;9.15;;;8.90;99.90;;;;;;4973741;28;20039;-51
2023/04/14 06:39:36;;;;;;;13.27;8.90;;;8.90;99.90;;;;;;4972486;28;20026;-57
2023/04/14 06:42:22;;;;;;;13.25;8.93;;;9.00;99.90;;;;;;4954045;28;20054;-57
2023/04/14 06:45:08;;;;;;;12.40;8.50;;;8.90;99.90;;;;;;4967095;28;20038;-53
2023/04/14 06:47:54;;;;;;;13.50;8.38;;;8.90;99.90;;;;;;4953575;28;20039;-50
2023/04/14 06:50:40;;;;;;;11.15;8.35;;;8.90;99.90;;;;;;4956802;28;20030;-55
2023/04/14 06:53:26;;;;;;;12.32;8.98;;;9.00;99.90;;;;;;4973011;28;20031;-54
2023/04/14 06:56:12;;;;;;;12.90;9.50;;;8.90;99.90;;;;;;4971985;28;20039;-51
2023/04/14 06:58:58;;;;;;;13.57;9.05;;;8.90;99.90;;;;;;4971003;28;20062;-53
2023/04/14 07:01:44;;;;;;;11.00;8.98;;;8.90;99.90;;;;;;4959054;28;20031;-50
2023/04/14 07:04:30;;;;;;;12.38;9.25;;;9.00;99.90;;;;;;4972648;28;20046;-54
2023/04/14 07:07:16;;;;;;;10.82;8.60;;;9.10;99.90;;;;;;4972295;28;20633;-49
2023/04/14 07:10:03;;;;;;;11.60;9.10;;;9.10;99.90;;;;;;4952227;28;20106;-55
2023/04/14 07:12:49;;;;;;;11.77;8.98;;;9.10;99.90;;;;;;4968389;28;20089;-55
2023/04/14 07:15:34;;;;;;;12.52;8.88;;;9.10;99.90;;;;;;4981116;28;20614;-55
2023/04/14 07:18:21;;;;;;;12.68;8.30;;;9.10;99.90;;;;;;4988478;28;20599;-53
2023/04/14 07:21:07;;;;;;;17.77;9.05;;;9.10;99.90;;;;;;4971934;28;20420;-56
2023/04/14 07:23:53;;;;;;;16.23;9.48;;;9.20;99.90;;;;;;4972451;28;20031;-58
2023/04/14 07:26:39;;;;;;;11.80;8.73;;;9.20;99.90;;;;;;4972732;28;20047;-55
2023/04/14 07:29:26;;;;;;;12.27;9.40;;;9.10;99.90;;;;;;4971017;28;20138;-51
2023/04/14 07:32:12;;;;;;;12.50;9.10;;;9.00;99.90;;;;;;4977432;28;20042;-55
2023/04/14 07:34:58;;;;;;;14.82;9.05;;;9.00;99.90;;;;;;4973016;28;20073;-51
2023/04/14 07:37:44;;;;;;;9.95;7.78;;;8.90;99.90;;;;;;4971744;28;20667;-48
2023/04/14 07:40:30;;;;;;;10.13;8.57;;;9.00;99.90;;;;;;4973838;28;20724;-55
2023/04/14 07:43:16;;;;;;;12.40;8.88;;;9.10;99.90;;;;;;4978302;28;20503;-53
2023/04/14 07:46:03;;;;;;;14.55;8.60;;;9.30;99.90;;;;;;4978090;28;20069;-55
2023/04/14 07:48:50;;;;;;;10.10;8.82;;;9.40;99.90;;;;;;4974815;28;20035;-56
2023/04/14 07:51:36;;;;;;;9.90;8.43;;;9.40;99.90;;;;;;4972680;28;20065;-54
2023/04/14 07:54:22;;;;;;;13.00;8.88;;;9.50;99.90;;;;;;4975536;28;20042;-52
2023/04/14 07:57:09;;;;;;;11.73;8.88;;;9.50;99.90;;;;;;4972538;28;20026;-53
2023/04/14 07:59:55;;;;;;;12.55;8.82;;;9.50;99.90;;;;;;4970895;28;20037;-52
2023/04/14 08:02:41;;;;;;;14.50;9.38;;;9.40;99.90;;;;;;4970932;28;20118;-53
2023/04/14 08:05:27;;;;;;;11.88;9.70;;;9.50;99.90;;;;;;4971011;28;20033;-53
2023/04/14 08:08:13;;;;;;;11.65;9.48;;;9.50;99.90;;;;;;4971800;28;20035;-54
2023/04/14 08:10:59;;;;;;;13.52;9.48;;;9.50;99.90;;;;;;4970884;28;20045;-53
2023/04/14 08:13:45;;;;;;;14.75;9.27;;;9.50;99.90;;;;;;4968957;28;20041;-51
2023/04/14 08:16:35;;;;;;;10.57;9.48;;;9.60;99.90;;;;;;4971293;28;20043;-54
2023/04/14 08:19:21;;;;;;;12.98;9.85;;;9.60;99.90;;;;;;4972088;28;20034;-56
2023/04/14 08:22:07;;;;;;;13.98;9.93;;;9.60;99.90;;;;;;4974063;28;20031;-53
2023/04/14 08:24:53;;;;;;;12.82;9.75;;;9.80;99.90;;;;;;4973564;28;20023;-54
2023/04/14 08:27:39;;;;;;;11.98;9.57;;;9.90;99.90;;;;;;4971995;28;20090;-50
2023/04/14 08:30:25;;;;;;;13.48;9.43;;;9.90;99.90;;;;;;4971241;28;20412;-53
2023/04/14 08:33:11;;;;;;;11.60;9.88;;;10.10;99.90;;;;;;4973129;28;20035;-55
2023/04/14 08:35:57;;;;;;;14.32;9.57;;;10.20;99.90;;;;;;4970131;28;20564;-52
2023/04/14 08:38:43;;;;;;;16.60;9.43;;;10.30;99.90;;;;;;4972375;28;20035;-56
2023/04/14 08:41:32;;;;;;;10.07;9.02;;;10.40;99.90;;;;;;4971526;28;20114;-53
2023/04/14 08:44:18;;;;;;;16.38;8.90;;;10.50;99.90;;;;;;4970567;28;20540;-52
2023/04/14 08:47:06;;;;;;;13.75;9.38;;;10.50;99.90;;;;;;4971292;28;20039;-54
2023/04/14 08:49:57;;;;;;;10.95;9.10;;;10.60;99.90;;;;;;4970867;28;20038;-51
2023/04/14 08:52:45;;;;;;;16.25;9.60;;;10.70;99.90;;;;;;4970759;28;20031;-52
2023/04/14 08:55:32;;;;;;;14.63;9.02;;;10.70;99.90;;;;;;4970952;28;20031;-51
2023/04/14 08:58:18;;;;;;;10.50;8.10;;;10.80;99.90;;;;;;4970672;28;20031;-54
2023/04/14 09:01:05;;;;;;;9.95;8.18;;;10.60;99.90;;;;;;4972253;28;20023;-55
2023/04/14 09:03:52;;;;;;;12.18;8.38;;;10.50;99.90;;;;;;4972742;28;20412;-55
2023/04/14 09:06:39;;;;;;;15.48;7.90;;;10.40;99.90;;;;;;4976913;28;20038;-54
2023/04/14 09:09:25;;;;;;;12.07;7.70;;;10.60;99.90;;;;;;4974271;28;20122;-49
2023/04/14 09:12:16;;;;;;;8.27;7.22;;;10.80;99.90;;;;;;4965878;28;20026;-51
2023/04/14 09:15:03;;;;;;;8.65;7.28;;;10.90;99.90;;;;;;4974852;28;20081;-51
2023/04/14 09:17:49;;;;;;;9.77;6.97;;;11.00;99.90;;;;;;4974225;28;20057;-55
2023/04/14 09:20:36;;;;;;;8.90;7.18;;;11.00;99.90;;;;;;4975357;28;20129;-54
2023/04/14 09:23:22;;;;;;;8.43;6.55;;;10.80;99.90;;;;;;4973806;28;20399;-53
2023/04/14 09:26:09;;;;;;;10.13;7.20;;;10.90;99.90;;;;;;4974791;28;20027;-52
2023/04/14 09:28:55;;;;;;;10.25;7.25;;;11.10;99.90;;;;;;4971334;28;20056;-55
2023/04/14 09:31:41;;;;;;;10.60;7.30;;;11.30;99.90;;;;;;4975470;28;20031;-56
2023/04/14 09:34:27;;;;;;;7.60;6.75;;;11.50;99.90;;;;;;4973343;28;20083;-58
2023/04/14 09:37:13;;;;;;;8.18;6.70;;;11.50;99.90;;;;;;4972981;28;20022;-54
2023/04/14 09:39:59;;;;;;;9.02;6.53;;;11.60;99.90;;;;;;4971716;28;20043;-57
2023/04/14 09:42:45;;;;;;;8.95;7.22;;;11.80;99.90;;;;;;4975302;28;20077;-53
2023/04/14 09:45:42;;;;;;;8.35;7.13;;;11.80;99.90;;;;;;4959362;28;20022;-55
2023/04/14 09:48:28;;;;;;;8.77;6.45;;;11.40;99.90;;;;;;4972209;28;20027;-55
2023/04/14 09:51:14;;;;;;;8.07;6.45;;;11.30;99.90;;;;;;4974889;28;20122;-59
2023/04/14 09:54:03;;;;;;;8.07;6.97;;;11.20;99.90;;;;;;4973188;28;20043;-54
2023/04/14 09:56:49;;;;;;;8.00;7.20;;;11.00;99.90;;;;;;4970736;28;20081;-55
2023/04/14 09:59:37;;;;;;;7.65;6.53;;;11.00;99.90;;;;;;4973257;28;20098;-55
2023/04/14 10:02:24;;;;;;;10.98;7.10;;;10.80;99.90;;;;;;4970244;28;20019;-55
2023/04/14 10:05:10;;;;;;;7.90;7.10;;;10.80;99.90;;;;;;4975290;28;20034;-55
2023/04/14 10:08:02;;;;;;;8.73;6.93;;;10.70;99.90;;;;;;4977439;28;20401;-51
2023/04/14 10:10:48;;;;;;;12.30;7.40;;;10.50;99.90;;;;;;4970067;28;20023;-51
2023/04/14 10:13:34;;;;;;;11.40;9.13;;;10.40;99.90;;;;;;4975861;28;20031;-55
2023/04/14 10:16:21;;;;;;;13.00;8.23;;;10.50;99.90;;;;;;4959813;28;20113;-52
2023/04/14 10:19:07;;;;;;;10.77;8.00;;;10.60;99.90;;;;;;4965925;28;20027;-54
2023/04/14 10:21:53;;;;;;;10.60;7.78;;;10.70;99.90;;;;;;4950439;28;20042;-51
2023/04/14 10:24:40;;;;;;;7.90;6.75;;;10.80;99.90;;;;;;4975618;28;20046;-57
2023/04/14 10:27:31;;;;;;;7.85;7.05;;;10.90;99.90;;;;;;4984289;28;20026;-52
2023/04/14 10:30:17;;;;;;;7.25;5.55;;;10.90;99.90;;;;;;4991924;28;20027;-53
2023/04/14 10:33:03;;;;;;;7.70;5.78;;;11.00;99.90;;;;;;4987542;28;20065;-51
2023/04/14 10:35:57;;;;;;;6.28;5.10;;;11.00;99.90;;;;;;4973022;28;20037;-52
2023/04/14 10:38:44;;;;;;;6.28;4.97;;;11.10;99.90;;;;;;4972302;28;20038;-51
2023/04/14 10:41:42;;;;;;;5.95;5.15;;;11.50;99.90;;;;;;4974820;28;20031;-52
2023/04/14 10:44:36;;;;;;;5.57;4.70;;;11.60;99.90;;;;;;4975918;28;20106;-53
2023/04/14 10:47:23;;;;;;;6.22;5.13;;;11.70;99.90;;;;;;4980022;28;20058;-51
2023/04/14 10:50:17;;;;;;;6.63;5.10;;;11.60;99.90;;;;;;4984048;28;20026;-54
2023/04/14 10:53:06;;;;;;;8.93;5.90;;;11.50;99.90;;;;;;4962411;28;20072;-57
2023/04/14 10:55:56;;;;;;;5.53;4.90;;;11.50;99.90;;;;;;4953970;28;20040;-54
2023/04/14 10:58:53;;;;;;;9.23;4.70;;;11.50;99.90;;;;;;4953265;28;20023;-57
2023/04/14 11:01:40;;;;;;;5.63;5.13;;;11.40;99.90;;;;;;4956045;28;20023;-54
2023/04/14 11:04:26;;;;;;;6.65;5.55;;;11.50;99.90;;;;;;4954477;28;20129;-53
2023/04/14 11:07:20;;;;;;;5.28;4.60;;;11.50;99.90;;;;;;4952771;28;20111;-54
2023/04/14 11:10:19;;;;;;;6.18;5.20;;;11.50;99.90;;;;;;4955726;28;20077;-56
2023/04/14 11:13:09;;;;;;;6.68;5.20;;;11.40;99.90;;;;;;4975816;28;20108;-57
2023/04/14 11:16:07;;;;;;;6.90;5.28;;;11.30;99.90;;;;;;4964212;28;20031;-55
2023/04/14 11:18:54;;;;;;;6.25;5.00;;;11.40;99.90;;;;;;4976841;28;20506;-53
2023/04/14 11:21:49;;;;;;;7.80;4.90;;;11.50;99.90;;;;;;4973202;28;20234;-56
2023/04/14 11:24:36;;;;;;;;;;;11.60;99.90;;;;;;4973345;28;20403;-55
2023/04/14 11:27:22;;;;;;;14.35;11.82;;;11.60;99.90;;;;;;4966260;28;19928;-55
2023/04/14 11:30:16;;;;;;;10.80;7.90;;;11.60;99.90;;;;;;4950794;28;20034;-58
2023/04/14 11:33:02;;;;;;;7.00;5.10;;;11.50;99.90;;;;;;4981858;28;20027;-56
2023/04/14 11:35:48;;;;;;;6.13;4.90;;;11.40;99.90;;;;;;4974523;28;20483;-54
2023/04/14 11:38:39;;;;;;;4.93;4.35;;;11.60;99.90;;;;;;4973221;28;20027;-53
2023/04/14 11:41:25;;;;;;;4.55;3.97;;;11.80;99.90;;;;;;4981376;28;20034;-53
2023/04/14 11:44:16;;;;;;;6.53;4.10;;;12.00;99.90;;;;;;4981820;28;20026;-57
2023/04/14 11:47:03;;;;;;;6.80;4.38;;;12.10;99.90;;;;;;4953119;28;20575;-56
2023/04/14 11:49:49;;;;;;;5.57;3.90;;;12.20;99.90;;;;;;4961062;28;20026;-57
2023/04/14 11:52:35;;;;;;;4.35;3.95;;;12.30;99.90;;;;;;4972011;28;20023;-57
2023/04/14 11:55:25;;;;;;;5.47;3.22;;;12.40;99.50;;;;;;4971488;28;20031;-55
2023/04/14 11:58:12;;;;;;;6.57;3.85;;;12.00;98.80;;;;;;4971696;28;20038;-55
2023/04/14 12:00:58;;;;;;;4.25;3.85;;;11.90;99.40;;;;;;4972149;28;20550;-52
2023/04/14 12:03:45;;;;;;;4.53;3.70;;;11.90;99.90;;;;;;4972532;28;20031;-53
2023/04/14 12:06:37;;;;;;;5.13;3.88;;;11.80;99.50;;;;;;4972891;28;20038;-56
2023/04/14 12:09:28;;;;;;;7.55;4.18;;;11.90;99.60;;;;;;4972388;28;20027;-57
2023/04/14 12:12:18;;;;;;;5.65;4.15;;;12.00;99.90;;;;;;4971544;28;20081;-52
2023/04/14 12:15:05;;;;;;;4.68;4.28;;;11.80;99.90;;;;;;4972930;28;20487;-55
2023/04/14 12:17:52;;;;;;;6.95;5.07;;;11.80;99.90;;;;;;4965015;28;20386;-54
2023/04/14 12:20:44;;;;;;;5.03;4.53;;;11.80;99.90;;;;;;4980606;28;20027;-52
2023/04/14 12:23:40;;;;;;;6.82;4.78;;;11.70;99.90;;;;;;4982453;28;20023;-56
2023/04/14 12:26:27;;;;;;;5.20;4.70;;;11.60;99.90;;;;;;4991204;28;20027;-56
2023/04/14 12:29:13;;;;;;;6.07;5.07;;;11.70;99.90;;;;;;4977082;28;20081;-55
2023/04/14 12:31:59;;;;;;;6.50;4.90;;;11.80;99.90;;;;;;4976474;28;20491;-57
2023/04/14 12:34:56;;;;;;;5.47;4.30;;;12.00;99.90;;;;;;4980592;28;20023;-55
2023/04/14 12:37:47;;;;;;;6.60;5.15;;;12.00;99.90;;;;;;4966927;28;20022;-55
2023/04/14 12:40:38;;;;;;;5.70;4.70;;;12.00;99.90;;;;;;4985602;28;20099;-57
2023/04/14 12:43:36;;;;;;;6.18;4.30;;;11.90;99.90;;;;;;4984628;28;20406;-56
2023/04/14 12:46:24;;;;;;;5.78;4.78;;;11.80;99.90;;;;;;4983356;28;20093;-51
2023/04/14 12:49:28;;;;;;;8.07;4.70;;;11.90;99.90;;;;;;4989294;28;20031;-55
2023/04/14 12:52:33;;;;;;;5.68;4.63;;;11.60;99.90;;;;;;4988578;28;20027;-55
2023/04/14 12:55:21;;;;;;;6.10;4.30;;;11.50;99.90;;;;;;4991328;28;20030;-57
2023/04/14 12:58:08;;;;;;;5.63;4.03;;;11.70;99.90;;;;;;4970324;28;20261;-54
2023/04/14 13:00:55;;;;;;;5.68;4.30;;;11.90;99.90;;;;;;4997121;28;20093;-55
2023/04/14 13:03:50;;;;;;;5.13;4.32;;;12.00;99.90;;;;;;4997726;28;20042;-56
2023/04/14 13:06:36;;;;;;;;;;;12.10;99.90;;;;;;5000043;28;20037;-55
2023/04/14 13:09:22;;;;;;;;;;;11.80;99.90;;;;;;4999554;28;20005;-58
2023/04/14 13:12:08;;;;;;;;;;;11.60;99.90;;;;;;4997578;28;19949;-56
2023/04/14 13:14:54;;;;;;;7.47;4.50;;;11.40;99.90;;;;;;4996252;28;20357;-55
2023/04/14 13:17:40;;;;;;;7.10;5.03;;;11.40;99.90;;;;;;4976888;28;20035;-56
2023/04/14 13:20:26;;;;;;;5.45;4.95;;;11.40;99.90;;;;;;4960343;28;20070;-55
2023/04/14 13:23:12;;;;;;;5.20;4.70;;;11.40;99.90;;;;;;4958449;29;20527;-55
2023/04/14 13:25:58;;;;;;;7.38;5.82;;;11.50;99.90;;;;;;4959363;28;20740;-57
2023/04/14 13:28:44;;;;;;;5.47;4.82;;;11.70;99.90;;;;;;4957940;29;20051;-56
2023/04/14 13:31:30;;;;;;;5.10;4.20;;;12.10;99.90;;;;;;4969134;28;20042;-56
2023/04/14 13:34:16;;;;;;;4.18;3.60;;;12.30;99.90;;;;;;4969099;28;20042;-56
2023/04/14 13:37:03;;;;;;;4.38;3.58;;;12.20;99.90;;;;;;4979391;28;20660;-55
2023/04/14 13:39:49;;;;;;;4.05;3.40;;;11.90;99.90;;;;;;4977294;28;20025;-56
2023/04/14 13:42:35;;;;;;;3.45;2.15;;;11.60;99.90;;;;;;4984115;28;20174;-54
2023/04/14 13:45:22;;;;;;;3.13;2.60;;;11.40;99.40;;;;;;4975542;28;20495;-57
2023/04/14 13:48:08;;;;;;;3.85;2.47;;;11.40;99.70;;;;;;4983441;28;20035;-56
2023/04/14 13:50:54;;;;;;;2.83;2.50;;;11.40;99.60;;;;;;4978978;28;20031;-58
2023/04/14 13:53:40;;;;;;;2.65;2.30;;;11.30;99.60;;;;;;4981891;28;20085;-54
2023/04/14 13:56:26;;;;;;;2.60;2.40;;;11.30;99.90;;;;;;4972266;28;20090;-55
2023/04/14 13:59:15;;;;;;;4.90;2.75;;;11.40;99.90;;;;;;4961374;28;20079;-55
2023/04/14 14:02:00;;;;;;;2.97;2.58;;;11.60;99.90;;;;;;4982482;28;20499;-57
2023/04/14 14:04:46;;;;;;;3.20;2.72;;;11.60;99.90;;;;;;4985209;28;20030;-56
2023/04/14 14:07:33;;;;;;;4.70;3.35;;;11.60;99.90;;;;;;4992178;28;20085;-54
2023/04/14 14:10:19;;;;;;;3.35;2.72;;;11.80;99.90;;;;;;4972228;28;20028;-53
2023/04/14 14:13:05;;;;;;;4.32;2.97;;;12.10;99.90;;;;;;4982110;28;20091;-54
2023/04/14 14:15:51;;;;;;;3.20;2.65;;;11.90;99.50;;;;;;4965465;28;20034;-52
2023/04/14 14:18:37;;;;;;;2.63;2.40;;;11.80;99.70;;;;;;4974143;28;20158;-51
2023/04/14 14:21:24;;;;;;;3.60;2.80;;;11.80;99.90;;;;;;4973976;28;20038;-58
2023/04/14 14:24:11;;;;;;;3.05;2.50;;;11.90;99.80;;;;;;4970358;28;20031;-55
2023/04/14 14:26:57;;;;;;;3.00;2.35;;;12.00;99.50;;;;;;4974378;28;20517;-53
2023/04/14 14:29:43;;;;;;;2.63;2.42;;;11.80;99.60;;;;;;4967832;28;20037;-54
2023/04/14 14:32:29;;;;;;;2.60;2.40;;;11.90;99.40;;;;;;4985940;28;20583;-54
2023/04/14 14:35:15;;;;;;;3.08;2.30;;;11.80;99.50;;;;;;4978522;28;20026;-54
2023/04/14 14:38:01;;;;;;;4.32;2.60;;;11.80;99.80;;;;;;4955463;28;20067;-55
2023/04/14 14:40:47;;;;;;;3.35;2.83;;;11.80;99.90;;;;;;4957583;28;20037;-53